Time,TemperatureF,DewpointF,PressureIn,WindDirection,WindDirectionDegrees,WindSpeedMPH,WindSpeedGustMPH,Humidity,HourlyPrecipIn,Conditions,Clouds,dailyrainin,SoftwareType,DateUTC
2013-03-05 00:01:00,45.0,44.5,29.96,NE,45,0.0,-999.0,98,-99.99,,,0.00,Acu-Link.com,2013-03-05 08:01:00,
2013-03-05 00:16:00,45.3,44.8,29.97,SW,225,1.1,-999.0,98,-99.99,,,0.00,Acu-Link.com,2013-03-05 08:16:00,
2013-03-05 00:31:00,44.6,44.1,29.97,SW,225,1.7,-999.0,98,-99.99,,,0.00,Acu-Link.com,2013-03-05 08:31:00,
2013-03-05 00:46:00,45.0,44.5,29.96,SSE,157,0.0,-999.0,98,-99.99,,,0.00,Acu-Link.com,2013-03-05 08:46:00,
2013-03-05 01:01:00,44.6,44.1,29.96,East,90,0.0,-999.0,98,-99.99,,,0.00,Acu-Link.com,2013-03-05 09:01:00,
2013-03-05 01:16:00,44.6,44.1,29.96,SSW,202,0.0,-999.0,98,-99.99,,,0.00,Acu-Link.com,2013-03-05 09:16:00,
2013-03-05 01:32:00,44.2,43.7,29.96,ESE,112,0.0,-999.0,98,-99.99,,,0.00,Acu-Link.com,2013-03-05 09:32:00,
2013-03-05 01:47:00,44.1,43.6,29.96,SSW,202,2.2,-999.0,98,-99.99,,,0.00,Acu-Link.com,2013-03-05 09:47:00,
2013-03-05 02:02:00,44.8,44.3,29.95,SW,225,0.0,-999.0,98,-99.99,,,0.00,Acu-Link.com,2013-03-05 10:02:00,
2013-03-05 02:17:00,43.9,43.4,29.95,SE,135,0.0,-999.0,98,-99.99,,,0.00,Acu-Link.com,2013-03-05 10:17:00,
2013-03-05 02:32:00,43.5,43.0,29.96,SSE,157,0.0,-999.0,98,-99.99,,,0.00,Acu-Link.com,2013-03-05 10:32:00,
2013-03-05 02:47:00,43.3,42.8,29.96,SW,225,0.0,-999.0,98,-99.99,,,0.00,Acu-Link.com,2013-03-05 10:47:00,
2013-03-05 03:02:00,45.0,44.5,29.96,SSW,202,1.1,-999.0,98,-99.99,,,0.00,Acu-Link.com,2013-03-05 11:02:00,
2013-03-05 03:17:00,46.0,45.5,29.97,ESE,112,0.0,-999.0,98,-99.99,,,0.00,Acu-Link.com,2013-03-05 11:17:00,
2013-03-05 03:32:00,46.9,46.4,29.97,North,0,0.0,-999.0,98,-99.99,,,0.00,Acu-Link.com,2013-03-05 11:32:00,
2013-03-05 03:48:00,47.5,47.0,29.97,West,270,0.0,-999.0,98,-99.99,,,0.00,Acu-Link.com,2013-03-05 11:48:00,
2013-03-05 04:03:00,47.8,47.3,29.97,SSW,202,0.0,-999.0,98,-99.99,,,0.00,Acu-Link.com,2013-03-05 12:03:00,
2013-03-05 04:18:00,48.0,47.5,29.97,SE,135,1.1,-999.0,98,-99.99,,,0.00,Acu-Link.com,2013-03-05 12:18:00,
2013-03-05 04:33:00,48.2,47.7,29.97,ENE,67,0.0,-999.0,98,-99.99,,,0.00,Acu-Link.com,2013-03-05 12:33:00,
2013-03-05 04:48:00,48.4,47.9,29.97,West,270,2.2,-999.0,98,-99.99,,,0.00,Acu-Link.com,2013-03-05 12:48:00,
2013-03-05 05:03:00,48.7,48.2,29.98,ESE,112,1.1,-999.0,98,-99.99,,,0.00,Acu-Link.com,2013-03-05 13:03:00,
2013-03-05 05:18:00,49.1,48.6,29.97,South,180,0.0,-999.0,98,-99.99,,,0.00,Acu-Link.com,2013-03-05 13:18:00,
2013-03-05 05:34:00,49.3,48.8,29.96,West,270,0.0,-999.0,98,-99.99,,,0.00,Acu-Link.com,2013-03-05 13:34:00,
2013-03-05 05:49:00,49.3,48.8,29.96,ESE,112,0.0,-999.0,98,-99.99,,,0.00,Acu-Link.com,2013-03-05 13:49:00,
2013-03-05 06:04:00,49.5,49.0,29.96,SSE,157,0.0,-999.0,98,-99.99,,,0.00,Acu-Link.com,2013-03-05 14:04:00,
2013-03-05 06:19:00,49.6,49.1,29.97,SSE,157,0.0,-999.0,98,-99.99,,,0.00,Acu-Link.com,2013-03-05 14:19:00,
2013-03-05 06:34:00,49.8,49.3,29.97,ESE,112,1.1,-999.0,98,-99.99,,,0.00,Acu-Link.com,2013-03-05 14:34:00,
2013-03-05 06:49:00,50.4,49.9,29.96,NNW,337,0.0,-999.0,98,-99.99,,,0.00,Acu-Link.com,2013-03-05 14:49:00,
2013-03-05 07:04:00,50.5,50.0,29.96,NE,45,0.0,-999.0,98,-99.99,,,0.00,Acu-Link.com,2013-03-05 15:04:00,
2013-03-05 07:19:00,50.9,50.4,29.96,ESE,112,0.0,-999.0,98,-99.99,,,0.00,Acu-Link.com,2013-03-05 15:19:00,
2013-03-05 07:35:00,51.1,50.6,29.97,ESE,112,0.0,-999.0,98,-99.99,,,0.00,Acu-Link.com,2013-03-05 15:35:00,
2013-03-05 07:50:00,51.4,50.9,29.97,East,90,1.1,-999.0,98,-99.99,,,0.00,Acu-Link.com,2013-03-05 15:50:00,
2013-03-05 08:05:00,52.0,51.5,29.98,NW,315,1.7,-999.0,98,-99.99,,,0.00,Acu-Link.com,2013-03-05 16:05:00,
2013-03-05 08:20:00,53.1,52.5,29.98,WSW,247,2.2,-999.0,98,-99.99,,,0.00,Acu-Link.com,2013-03-05 16:20:00,
2013-03-05 08:35:00,53.6,53.0,29.99,North,0,0.0,-999.0,98,-99.99,,,0.00,Acu-Link.com,2013-03-05 16:35:00,
2013-03-05 08:50:00,54.1,53.5,29.99,ENE,67,2.7,-999.0,98,-99.99,,,0.00,Acu-Link.com,2013-03-05 16:50:00,
2013-03-05 09:05:00,55.6,55.0,30.00,West,270,0.0,-999.0,98,-99.99,,,0.00,Acu-Link.com,2013-03-05 17:05:00,
2013-03-05 09:21:00,56.1,55.5,30.00,South,180,0.0,-999.0,98,-99.99,,,0.00,Acu-Link.com,2013-03-05 17:21:00,
2013-03-05 09:36:00,56.8,56.2,30.00,South,180,2.2,-999.0,98,-99.99,,,0.00,Acu-Link.com,2013-03-05 17:36:00,
2013-03-05 09:51:00,58.1,57.5,30.00,ESE,112,1.7,-999.0,98,-99.99,,,0.00,Acu-Link.com,2013-03-05 17:51:00,
2013-03-05 10:06:00,59.5,58.9,30.00,NNE,22,2.2,-999.0,98,-99.99,,,0.00,Acu-Link.com,2013-03-05 18:06:00,
2013-03-05 10:21:00,61.7,61.1,29.99,SW,225,1.7,-999.0,98,-99.99,,,0.00,Acu-Link.com,2013-03-05 18:21:00,
2013-03-05 10:36:00,63.7,63.1,29.98,West,270,2.2,-999.0,98,-99.99,,,0.00,Acu-Link.com,2013-03-05 18:36:00,
2013-03-05 10:51:00,67.3,66.7,29.98,SW,225,3.2,-999.0,98,-99.99,,,0.00,Acu-Link.com,2013-03-05 18:51:00,
2013-03-05 11:06:00,70.2,69.6,29.97,WSW,247,1.7,-999.0,98,-99.99,,,0.00,Acu-Link.com,2013-03-05 19:06:00,
2013-03-05 11:21:00,72.9,72.3,29.97,North,0,1.7,-999.0,98,-99.99,,,0.00,Acu-Link.com,2013-03-05 19:21:00,
2013-03-05 11:36:00,73.6,73.0,29.97,WSW,247,2.7,-999.0,98,-99.99,,,0.00,Acu-Link.com,2013-03-05 19:36:00,
2013-03-05 11:52:00,75.9,7.4,29.95,SW,225,1.7,-999.0,7,-99.99,,,0.00,Acu-Link.com,2013-03-05 19:52:00,
2013-03-05 12:07:00,76.1,-18.2,29.95,SE,135,1.1,-999.0,2,-99.99,,,0.00,Acu-Link.com,2013-03-05 20:07:00,
2013-03-05 12:22:00,77.5,-3.4,29.94,NE,45,2.7,-999.0,4,-99.99,,,0.00,Acu-Link.com,2013-03-05 20:22:00,
2013-03-05 12:37:00,78.3,-29.9,29.93,West,270,2.2,-999.0,1,-99.99,,,0.00,Acu-Link.com,2013-03-05 20:37:00,
2013-03-05 12:52:00,74.1,61.6,29.93,South,180,5.8,-999.0,65,-99.99,,,0.00,Acu-Link.com,2013-03-05 20:52:00,
2013-03-05 13:07:00,69.3,68.7,29.93,SSW,202,3.7,-999.0,98,-99.99,,,0.00,Acu-Link.com,2013-03-05 21:07:00,
2013-03-05 13:23:00,64.6,64.0,29.93,SW,225,10.9,-999.0,98,-99.99,,,0.00,Acu-Link.com,2013-03-05 21:23:00,
2013-03-05 13:38:00,62.8,62.2,29.92,SW,225,11.4,-999.0,98,-99.99,,,0.00,Acu-Link.com,2013-03-05 21:38:00,
2013-03-05 13:53:00,60.3,59.7,29.91,SW,225,7.8,-999.0,98,-99.99,,,0.00,Acu-Link.com,2013-03-05 21:53:00,
2013-03-05 14:08:00,58.5,57.9,29.92,SW,225,4.2,-999.0,98,-99.99,,,0.00,Acu-Link.com,2013-03-05 22:08:00,
2013-03-05 14:23:00,57.9,57.3,29.92,West,270,5.3,-999.0,98,-99.99,,,0.00,Acu-Link.com,2013-03-05 22:23:00,
2013-03-05 14:38:00,56.8,56.2,29.92,SSW,202,4.7,-999.0,98,-99.99,,,0.00,Acu-Link.com,2013-03-05 22:38:00,
2013-03-05 14:53:00,55.9,55.3,29.92,SW,225,4.2,-999.0,98,-99.99,,,0.00,Acu-Link.com,2013-03-05 22:53:00,
2013-03-05 15:08:00,56.3,55.7,29.91,North,0,2.7,-999.0,98,-99.99,,,0.00,Acu-Link.com,2013-03-05 23:08:00,
2013-03-05 15:23:00,55.8,55.2,29.91,SW,225,6.3,-999.0,98,-99.99,,,0.00,Acu-Link.com,2013-03-05 23:23:00,
2013-03-05 15:39:00,55.6,55.0,29.90,WNW,292,4.7,-999.0,98,-99.99,,,0.00,Acu-Link.com,2013-03-05 23:39:00,
2013-03-05 15:54:00,55.6,55.0,29.91,SW,225,5.3,-999.0,98,-99.99,,,0.00,Acu-Link.com,2013-03-05 23:54:00,
2013-03-05 16:09:00,55.2,54.6,29.91,West,270,4.2,-999.0,98,-99.99,,,0.00,Acu-Link.com,2013-03-06 00:09:00,
2013-03-05 16:24:00,56.1,55.5,29.90,WSW,247,4.2,-999.0,98,-99.99,,,0.00,Acu-Link.com,2013-03-06 00:24:00,
2013-03-05 16:39:00,55.9,55.3,29.90,WSW,247,3.7,-999.0,98,-99.99,,,0.00,Acu-Link.com,2013-03-06 00:39:00,
2013-03-05 16:54:00,56.1,55.5,29.90,SW,225,1.7,-999.0,98,-99.99,,,0.00,Acu-Link.com,2013-03-06 00:54:00,
2013-03-05 17:10:00,56.5,55.9,29.90,WSW,247,2.2,-999.0,98,-99.99,,,0.00,Acu-Link.com,2013-03-06 01:10:00,
2013-03-05 17:25:00,55.2,54.6,29.91,SSW,202,2.7,-999.0,98,-99.99,,,0.00,Acu-Link.com,2013-03-06 01:25:00,
2013-03-05 17:40:00,54.7,54.1,29.91,WSW,247,3.2,-999.0,98,-99.99,,,0.00,Acu-Link.com,2013-03-06 01:40:00,
2013-03-05 17:55:00,54.1,53.5,29.91,South,180,1.7,-999.0,98,-99.99,,,0.00,Acu-Link.com,2013-03-06 01:55:00,
2013-03-05 18:10:00,53.8,53.2,29.91,SSW,202,4.7,-999.0,98,-99.99,,,0.00,Acu-Link.com,2013-03-06 02:10:00,
2013-03-05 18:25:00,53.6,53.0,29.92,WSW,247,2.7,-999.0,98,-99.99,,,0.00,Acu-Link.com,2013-03-06 02:25:00,
2013-03-05 18:40:00,53.1,52.5,29.93,SSW,202,5.8,-999.0,98,-99.99,,,0.00,Acu-Link.com,2013-03-06 02:40:00,
2013-03-05 18:55:00,52.3,51.8,29.94,South,180,4.2,-999.0,98,-99.99,,,0.00,Acu-Link.com,2013-03-06 02:55:00,
2013-03-05 19:10:00,52.2,51.7,29.94,WNW,292,3.2,-999.0,98,-99.99,,,0.00,Acu-Link.com,2013-03-06 03:10:00,
2013-03-05 19:26:00,51.8,51.3,29.95,SSW,202,2.2,-999.0,98,-99.99,,,0.00,Acu-Link.com,2013-03-06 03:26:00,
2013-03-05 19:41:00,51.6,51.1,29.95,South,180,2.2,-999.0,98,-99.99,,,0.00,Acu-Link.com,2013-03-06 03:41:00,
2013-03-05 19:56:00,51.4,50.9,29.94,West,270,1.7,-999.0,98,-99.99,,,0.00,Acu-Link.com,2013-03-06 03:56:00,
2013-03-05 20:11:00,51.4,50.9,29.94,WSW,247,2.2,-999.0,98,-99.99,,,0.00,Acu-Link.com,2013-03-06 04:11:00,
2013-03-05 20:26:00,51.3,50.8,29.94,WSW,247,3.7,-999.0,98,-99.99,,,0.00,Acu-Link.com,2013-03-06 04:26:00,
2013-03-05 20:41:00,50.9,50.4,29.96,WSW,247,4.7,-999.0,98,-99.99,,,0.00,Acu-Link.com,2013-03-06 04:41:00,
2013-03-05 20:56:00,50.9,50.4,29.95,WSW,247,5.3,-999.0,98,-99.99,,,0.00,Acu-Link.com,2013-03-06 04:56:00,
2013-03-05 21:11:00,50.7,50.2,29.96,WSW,247,3.7,-999.0,98,-99.99,,,0.00,Acu-Link.com,2013-03-06 05:11:00,
2013-03-05 21:26:00,50.7,50.2,29.96,SW,225,3.2,-999.0,98,-99.99,,,0.00,Acu-Link.com,2013-03-06 05:26:00,
2013-03-05 21:42:00,50.7,50.2,29.97,SSW,202,3.2,-999.0,98,-99.99,,,0.00,Acu-Link.com,2013-03-06 05:42:00,
2013-03-05 22:12:00,50.7,50.2,29.97,SSW,202,6.8,-999.0,98,-99.99,,,0.00,Acu-Link.com,2013-03-06 06:12:00,
2013-03-05 22:27:00,50.0,49.5,29.97,SW,225,3.7,-999.0,98,-99.99,,,0.00,Acu-Link.com,2013-03-06 06:27:00,
2013-03-05 22:42:00,49.6,49.1,29.98,SW,225,5.3,-999.0,98,-99.99,,,0.00,Acu-Link.com,2013-03-06 06:42:00,
2013-03-05 22:57:00,49.6,49.1,29.99,SSW,202,4.2,-999.0,98,-99.99,,,0.00,Acu-Link.com,2013-03-06 06:57:00,
2013-03-05 23:12:00,49.5,49.0,29.99,SSW,202,5.3,-999.0,98,-99.99,,,0.00,Acu-Link.com,2013-03-06 07:12:00,
2013-03-05 23:27:00,49.1,48.6,29.99,WSW,247,4.2,-999.0,98,-99.99,,,0.00,Acu-Link.com,2013-03-06 07:27:00,
2013-03-05 23:42:00,49.1,48.6,29.99,SSE,157,0.0,-999.0,98,-99.99,,,0.00,Acu-Link.com,2013-03-06 07:42:00,
2013-03-05 23:57:00,49.1,48.6,30.00,SE,135,1.7,-999.0,98,-99.99,,,0.00,Acu-Link.com,2013-03-06 07:57:00,